Woodboro, Wisconsin
Current Conditions -  °F | °C
As of 7:53 AM on Thursday 27 Nov 2014 (Local Time) from KRHI Reporting Station
Clear Clear  
Wind Chill: -10°   Ceiling: Unl
Heat Index:   Visibility: 10mi
Dew Point: -2°   Wind: 6mph
Humidity: 87%   Direction: 280°W
Pressure: 30.29"   Gusts: NA
Location:  45.6521°N, 89.3386°W
Report Text: KRHI 271353Z AUTO 28005KT 10SM CLR M17/M19 A3029 RMK AO2 SLP295 I1000 T11721189
Loading
Personal Weather Stations






























Interactive Weather Map New forecast layout! Learn more

10-Day Weather Forecast

Advertisements
Track Severe Weather on mobile